Terminal Aerodrome Forecast
Issued by NWS Green Bay, WI

Home | Current Version | Previous Version | Text Only | Print | Product List | Glossary On
Versions: 1 2 3 4 5 6 7 8 9 10 11 12 13 14 15 16 17 18 19 20 21 22 23 24 25 26 27 28 29 30 31 32 33 34 35 36 37 38 39 40 41 42 43 44 45 46 47 48 49
119
FTUS43 KGRB 250711 AAA
TAFGRB
TAF AMD
KGRB 250711Z 2507/2606 17010KT 4SM -RA BR OVC008 WS020/13045KT
      TEMPO 2507/2509 2SM -SN BR OVC005
     FM250900 23014G26KT 6SM -SHSN SCT005 BKN012
     FM251100 24017G32KT P6SM BKN015
     FM251400 25022G36KT P6SM FEW015 FEW030
     FM260500 25011KT P6SM SKC=

USA.gov is the U.S. government's official web portal to all federal, state and local government web resources and services.